createdAt,value
2018-02-24T00:00:52.090Z,87.30
2018-02-24T00:03:19.669Z,86.90
2018-02-24T00:05:47.218Z,86.90
2018-02-24T00:08:14.809Z,86.70
2018-02-24T00:10:42.408Z,86.70
2018-02-24T00:13:10.726Z,87.00
2018-02-24T00:15:38.337Z,86.90
2018-02-24T00:18:05.895Z,86.90
2018-02-24T00:20:33.449Z,86.80
2018-02-24T00:23:01.022Z,86.80
2018-02-24T00:25:28.608Z,87.00
2018-02-24T00:27:56.157Z,87.10
2018-02-24T00:30:24.470Z,86.80
2018-02-24T00:32:52.057Z,86.80
2018-02-24T00:35:19.595Z,86.60
2018-02-24T00:37:47.175Z,86.90
2018-02-24T00:40:14.727Z,86.90
2018-02-24T00:42:42.310Z,86.80
2018-02-24T00:45:09.851Z,86.60
2018-02-24T00:47:37.442Z,86.60
2018-02-24T00:50:05.780Z,86.70
2018-02-24T00:52:33.321Z,86.70
2018-02-24T00:55:00.900Z,86.60
2018-02-24T00:57:28.437Z,86.70
2018-02-24T00:59:56.016Z,86.60
2018-02-24T01:02:23.564Z,86.60
2018-02-24T01:04:51.139Z,86.90
2018-02-24T01:07:18.696Z,86.60
2018-02-24T01:09:46.291Z,86.70
2018-02-24T01:12:13.836Z,86.80
2018-02-24T01:14:41.429Z,86.70
2018-02-24T01:17:09.007Z,86.50
2018-02-24T01:19:36.613Z,86.70
2018-02-24T01:22:04.192Z,86.60
2018-02-24T01:24:31.772Z,86.50
2018-02-24T01:27:00.184Z,86.80
2018-02-24T01:29:27.768Z,86.70
2018-02-24T01:31:55.308Z,86.70
2018-02-24T01:34:22.895Z,86.50
2018-02-24T01:36:50.443Z,86.70
2018-02-24T01:39:18.000Z,86.50
2018-02-24T01:41:45.575Z,86.30
2018-02-24T01:44:13.114Z,86.50
2018-02-24T01:46:40.688Z,86.30
2018-02-24T01:49:08.224Z,86.20
2018-02-24T01:51:35.808Z,86.00
2018-02-24T01:54:03.437Z,86.20
2018-02-24T01:56:31.020Z,86.30
2018-02-24T01:58:58.564Z,86.30
2018-02-24T02:01:26.135Z,86.30
2018-02-24T02:03:53.677Z,86.10
2018-02-24T02:06:21.258Z,86.10
2018-02-24T02:08:48.803Z,86.10
2018-02-24T02:11:16.406Z,86.00
2018-02-24T02:13:44.720Z,86.10
2018-02-24T02:16:12.264Z,86.10
2018-02-24T02:18:39.869Z,86.00
2018-02-24T02:21:07.406Z,86.00
2018-02-24T02:23:34.981Z,86.00
2018-02-24T02:26:02.559Z,86.10
2018-02-24T02:28:30.143Z,85.70
2018-02-24T02:30:57.696Z,86.10
2018-02-24T02:33:25.278Z,85.90
2018-02-24T02:35:53.592Z,86.00
2018-02-24T02:38:21.176Z,86.00
2018-02-24T02:40:48.774Z,85.80
2018-02-24T02:43:17.078Z,85.80
2018-02-24T02:45:44.687Z,85.70
2018-02-24T02:48:12.270Z,85.80
2018-02-24T02:50:40.608Z,85.70
2018-02-24T02:53:08.245Z,85.50
2018-02-24T02:55:35.793Z,85.70
2018-02-24T02:58:03.344Z,85.80
2018-02-24T03:00:30.953Z,85.70
2018-02-24T03:02:58.493Z,85.70
2018-02-24T03:05:26.039Z,85.50
2018-02-24T03:07:53.620Z,85.70
2018-02-24T03:10:21.164Z,85.50
2018-02-24T03:12:48.764Z,85.50
2018-02-24T03:15:16.383Z,85.30
2018-02-24T03:17:43.980Z,85.30
2018-02-24T03:20:13.032Z,85.40
2018-02-24T03:22:40.636Z,85.40
2018-02-24T03:25:08.957Z,85.40
2018-02-24T03:27:36.537Z,85.40
2018-02-24T03:30:04.117Z,85.30
2018-02-24T03:32:31.664Z,85.20
2018-02-24T03:34:59.242Z,85.20
2018-02-24T03:37:26.793Z,85.30
2018-02-24T03:39:54.372Z,84.90
2018-02-24T03:42:22.687Z,85.10
2018-02-24T03:44:50.277Z,85.10
2018-02-24T03:47:17.819Z,85.00
2018-02-24T03:49:45.392Z,85.00
2018-02-24T03:52:12.964Z,85.10
2018-02-24T03:54:40.515Z,85.30
2018-02-24T03:57:08.102Z,85.20
2018-02-24T03:59:35.644Z,85.20
2018-02-24T04:02:03.229Z,85.10
2018-02-24T04:04:30.794Z,85.30
2018-02-24T04:06:58.373Z,85.10
2018-02-24T04:09:26.681Z,85.00
2018-02-24T04:11:54.281Z,84.90
2018-02-24T04:14:21.825Z,85.00
2018-02-24T04:16:49.445Z,84.70
2018-02-24T04:19:16.988Z,85.10
2018-02-24T04:21:45.333Z,85.80
2018-02-24T04:24:12.894Z,85.00
2018-02-24T04:26:40.474Z,85.00
2018-02-24T04:29:08.056Z,85.00
2018-02-24T04:31:36.464Z,85.40
2018-02-24T04:34:04.064Z,84.60
2018-02-24T04:36:31.610Z,84.70
2018-02-24T04:38:59.160Z,84.70
2018-02-24T04:41:26.746Z,84.70
2018-02-24T04:43:54.333Z,84.90
2018-02-24T04:46:22.639Z,84.80
2018-02-24T04:48:50.173Z,84.80
2018-02-24T04:51:17.757Z,84.70
2018-02-24T04:53:46.203Z,84.80
2018-02-24T04:56:14.542Z,84.80
2018-02-24T04:58:42.096Z,84.80
2018-02-24T05:01:09.689Z,85.00
2018-02-24T05:03:38.015Z,85.30
2018-02-24T05:06:44.816Z,84.80
2018-02-24T05:09:14.850Z,84.80
2018-02-24T05:11:42.432Z,84.50
2018-02-24T05:14:10.737Z,84.80
2018-02-24T05:16:38.311Z,84.70
2018-02-24T05:19:05.858Z,84.90
2018-02-24T05:21:33.451Z,84.50
2018-02-24T05:24:00.996Z,84.70
2018-02-24T05:26:28.544Z,84.70
2018-02-24T05:28:56.124Z,84.70
2018-02-24T05:31:23.685Z,84.50
2018-02-24T05:33:51.291Z,84.60
2018-02-24T05:36:19.603Z,84.50
2018-02-24T05:38:47.143Z,84.50
2018-02-24T05:41:14.725Z,84.50
2018-02-24T05:43:42.306Z,84.50
2018-02-24T05:46:09.889Z,84.30
2018-02-24T05:48:37.430Z,84.50
2018-02-24T05:51:05.019Z,84.50
2018-02-24T05:53:33.331Z,84.30
2018-02-24T05:56:00.887Z,85.10
2018-02-24T05:58:28.466Z,84.00
2018-02-24T06:00:56.068Z,84.20
2018-02-24T06:03:23.605Z,84.40
2018-02-24T06:05:51.144Z,84.20
2018-02-24T06:08:18.724Z,84.30
2018-02-24T06:10:46.298Z,84.10
2018-02-24T06:13:13.876Z,84.10
2018-02-24T06:15:42.199Z,84.40
2018-02-24T06:18:09.800Z,84.40
2018-02-24T06:20:37.344Z,84.50
2018-02-24T06:23:04.950Z,84.30
2018-02-24T06:25:32.535Z,84.20
2018-02-24T06:28:00.112Z,84.60
2018-02-24T06:30:27.652Z,84.40
2018-02-24T06:32:55.239Z,84.10
2018-02-24T06:35:22.790Z,84.50
2018-02-24T06:37:50.367Z,84.20
2018-02-24T06:40:17.929Z,84.40
2018-02-24T06:42:45.513Z,84.20
2018-02-24T06:45:13.830Z,83.70
2018-02-24T06:47:41.417Z,83.70
2018-02-24T06:50:08.972Z,84.00
2018-02-24T06:52:36.551Z,84.30
2018-02-24T06:55:04.128Z,84.10
2018-02-24T06:57:32.436Z,84.10
2018-02-24T07:00:00.037Z,84.10
2018-02-24T07:02:27.623Z,83.90
2018-02-24T07:04:55.945Z,84.00
2018-02-24T07:07:23.645Z,83.90
2018-02-24T07:09:51.156Z,84.00
2018-02-24T07:12:18.719Z,83.70
2018-02-24T07:14:46.315Z,84.10
2018-02-24T07:17:13.926Z,83.80
2018-02-24T07:19:41.479Z,84.10
2018-02-24T07:22:09.867Z,84.00
2018-02-24T07:24:37.460Z,83.90
2018-02-24T07:27:05.026Z,83.90
2018-02-24T07:29:32.611Z,83.80
2018-02-24T07:32:00.204Z,83.50
2018-02-24T07:34:27.752Z,83.60
2018-02-24T07:36:56.113Z,83.60
2018-02-24T07:39:23.667Z,83.40
2018-02-24T07:41:51.273Z,83.70
2018-02-24T07:44:18.926Z,83.50
2018-02-24T07:46:46.540Z,83.20
2018-02-24T07:49:14.137Z,83.30
2018-02-24T07:51:42.489Z,83.20
2018-02-24T07:54:10.083Z,83.10
2018-02-24T07:56:37.627Z,82.90
2018-02-24T07:59:06.029Z,83.10
2018-02-24T08:01:33.611Z,83.10
2018-02-24T08:04:01.184Z,83.00
2018-02-24T08:06:28.774Z,82.90
2018-02-24T08:08:57.165Z,82.60
2018-02-24T08:11:25.508Z,82.80
2018-02-24T08:13:53.111Z,82.70
2018-02-24T08:16:20.806Z,82.80
2018-02-24T08:18:48.378Z,82.60
2018-02-24T08:21:15.929Z,82.70
2018-02-24T08:23:43.556Z,82.50
2018-02-24T08:26:11.095Z,82.30
2018-02-24T08:28:39.406Z,82.50
2018-02-24T08:31:07.024Z,82.40
2018-02-24T08:33:34.575Z,82.70
2018-02-24T08:36:02.201Z,82.60
2018-02-24T08:38:29.746Z,82.50
2018-02-24T08:40:57.316Z,82.30
2018-02-24T08:43:24.917Z,82.30
2018-02-24T08:45:52.571Z,82.00
2018-02-24T08:48:20.193Z,81.90
2018-02-24T08:50:47.731Z,81.70
2018-02-24T08:53:16.091Z,81.50
2018-02-24T08:55:44.463Z,81.30
2018-02-24T08:58:12.013Z,81.30
2018-02-24T09:00:39.604Z,81.10
2018-02-24T09:03:07.922Z,80.80
2018-02-24T09:05:35.500Z,80.70
2018-02-24T09:08:03.069Z,80.40
2018-02-24T09:10:30.701Z,80.70
2018-02-24T09:12:58.302Z,80.20
2018-02-24T09:15:25.942Z,80.20
2018-02-24T09:17:53.484Z,79.60
2018-02-24T09:20:21.026Z,79.50
2018-02-24T09:22:48.608Z,79.50
2018-02-24T09:25:16.200Z,79.60
2018-02-24T09:27:43.773Z,79.30
2018-02-24T09:30:12.088Z,79.40
2018-02-24T09:32:39.701Z,79.30
2018-02-24T09:35:07.235Z,79.10
2018-02-24T09:37:34.800Z,79.20
2018-02-24T09:40:02.402Z,78.70
2018-02-24T09:42:30.733Z,78.70
2018-02-24T09:44:58.463Z,79.40
2018-02-24T09:47:26.021Z,78.30
2018-02-24T09:49:53.556Z,78.60
2018-02-24T09:52:21.922Z,78.40
2018-02-24T09:54:49.484Z,78.30
2018-02-24T09:57:17.016Z,78.10
2018-02-24T09:59:44.599Z,78.80
2018-02-24T10:02:12.148Z,77.50
2018-02-24T10:04:39.769Z,77.30
2018-02-24T10:07:07.399Z,77.20
2018-02-24T10:09:35.717Z,76.70
2018-02-24T10:12:03.281Z,76.60
2018-02-24T10:14:30.893Z,75.80
2018-02-24T10:16:59.214Z,74.80
2018-02-24T10:19:26.763Z,74.80
2018-02-24T10:21:54.353Z,74.80
2018-02-24T10:24:21.899Z,74.20
2018-02-24T10:26:49.549Z,73.70
2018-02-24T10:29:17.092Z,73.50
2018-02-24T10:31:44.752Z,72.80
2018-02-24T10:34:12.293Z,72.60
2018-02-24T10:36:40.634Z,72.10
2018-02-24T10:39:08.180Z,71.90
2018-02-24T10:41:35.812Z,70.50
2018-02-24T10:44:03.400Z,70.60
2018-02-24T10:46:31.049Z,70.60
2018-02-24T10:49:10.796Z,69.70
2018-02-24T10:51:38.467Z,69.40
2018-02-24T10:54:06.032Z,69.30
2018-02-24T10:56:33.854Z,69.70
2018-02-24T10:59:01.402Z,69.30
2018-02-24T11:01:29.719Z,68.20
2018-02-24T11:03:57.299Z,68.00
2018-02-24T11:06:24.843Z,68.30
2018-02-24T11:08:52.447Z,68.00
2018-02-24T11:11:20.830Z,67.80
2018-02-24T11:13:48.356Z,67.70
2018-02-24T11:16:15.955Z,67.40
2018-02-24T11:18:44.259Z,66.70
2018-02-24T11:21:11.845Z,66.70
2018-02-24T11:23:39.425Z,66.40
2018-02-24T11:26:07.022Z,65.90
2018-02-24T11:28:35.340Z,66.10
2018-02-24T11:31:02.994Z,66.10
2018-02-24T11:33:30.575Z,66.30
2018-02-24T11:35:58.115Z,66.30
2018-02-24T11:38:25.743Z,65.70
2018-02-24T11:40:54.061Z,65.40
2018-02-24T11:43:21.685Z,65.40
2018-02-24T11:45:49.244Z,65.40
2018-02-24T11:48:17.582Z,64.10
2018-02-24T11:50:45.139Z,64.00
2018-02-24T11:53:12.726Z,65.20
2018-02-24T11:55:41.099Z,65.10
2018-02-24T11:58:09.546Z,65.20
2018-02-24T12:00:37.137Z,65.10
2018-02-24T12:03:04.700Z,64.90
2018-02-24T12:05:33.052Z,65.00
2018-02-24T12:08:00.673Z,64.90
2018-02-24T12:10:28.219Z,65.30
2018-02-24T12:12:55.793Z,65.50
2018-02-24T12:15:23.388Z,64.60
2018-02-24T12:17:50.957Z,64.50
2018-02-24T12:20:18.504Z,64.20
2018-02-24T12:22:46.090Z,64.50
2018-02-24T12:25:13.638Z,65.30
2018-02-24T12:27:41.232Z,64.40
2018-02-24T12:30:09.650Z,64.80
2018-02-24T12:32:37.191Z,64.80
2018-02-24T12:35:04.869Z,64.70
2018-02-24T12:37:32.497Z,65.00
2018-02-24T12:40:00.812Z,64.00
2018-02-24T12:42:28.611Z,64.00
2018-02-24T12:44:56.160Z,64.40
2018-02-24T12:47:23.895Z,64.80
2018-02-24T12:49:51.511Z,65.00
2018-02-24T12:52:19.824Z,65.00
2018-02-24T12:54:47.410Z,65.00
2018-02-24T12:57:15.056Z,65.00
2018-02-24T12:59:42.760Z,65.40
2018-02-24T13:02:10.310Z,64.90
2018-02-24T13:04:37.888Z,64.40
2018-02-24T13:07:06.244Z,65.20
2018-02-24T13:09:33.852Z,65.10
2018-02-24T13:12:01.426Z,65.00
2018-02-24T13:14:28.959Z,65.20
2018-02-24T13:16:57.302Z,65.40
2018-02-24T13:19:24.890Z,65.40
2018-02-24T13:21:53.196Z,66.20
2018-02-24T13:24:20.767Z,66.00
2018-02-24T13:26:48.351Z,66.20
2018-02-24T13:29:15.925Z,66.30
2018-02-24T13:31:43.510Z,67.20
2018-02-24T13:34:11.860Z,66.30
2018-02-24T13:36:39.441Z,66.20
2018-02-24T13:39:07.747Z,66.60
2018-02-24T13:41:35.337Z,66.50
2018-02-24T13:44:02.891Z,66.40
2018-02-24T13:46:30.441Z,66.80
2018-02-24T13:48:58.011Z,65.90
2018-02-24T13:51:25.572Z,66.60
2018-02-24T13:53:53.953Z,67.20
2018-02-24T13:56:21.495Z,66.60
2018-02-24T13:58:49.166Z,66.70
2018-02-24T14:01:16.725Z,66.30
2018-02-24T14:03:44.304Z,67.20
2018-02-24T14:06:11.883Z,67.20
2018-02-24T14:08:39.480Z,67.20
2018-02-24T14:11:07.109Z,67.60
2018-02-24T14:13:34.644Z,67.60
2018-02-24T14:16:02.181Z,67.60
2018-02-24T14:18:29.794Z,68.00
2018-02-24T14:20:57.327Z,67.80
2018-02-24T14:23:24.888Z,68.50
2018-02-24T14:25:52.500Z,69.20
2018-02-24T14:28:20.037Z,68.40
2018-02-24T14:30:48.344Z,70.30
2018-02-24T14:33:15.971Z,70.40
2018-02-24T14:35:43.547Z,69.30
2018-02-24T14:38:11.892Z,70.40
2018-02-24T14:40:39.472Z,70.30
2018-02-24T14:43:07.031Z,70.30
2018-02-24T14:45:34.626Z,70.00
2018-02-24T14:48:02.176Z,71.00
2018-02-24T14:50:29.760Z,71.00
2018-02-24T14:52:57.347Z,71.60
2018-02-24T14:55:24.897Z,71.40
2018-02-24T14:57:52.475Z,72.00
2018-02-24T15:00:20.850Z,71.70
2018-02-24T15:02:48.461Z,71.80
2018-02-24T15:05:16.044Z,71.90
2018-02-24T15:07:43.622Z,72.20
2018-02-24T15:10:11.215Z,72.10
2018-02-24T15:12:39.556Z,72.20
2018-02-24T15:15:07.113Z,72.20
2018-02-24T15:17:34.693Z,71.90
2018-02-24T15:20:03.047Z,72.60
2018-02-24T15:22:30.602Z,72.60
2018-02-24T15:24:58.188Z,72.40
2018-02-24T15:27:25.802Z,72.50
2018-02-24T15:29:53.348Z,73.00
2018-02-24T15:32:21.702Z,73.30
2018-02-24T15:34:49.310Z,73.20
2018-02-24T15:37:16.977Z,72.70
2018-02-24T15:39:44.557Z,73.50
2018-02-24T15:42:12.208Z,73.40
2018-02-24T15:44:39.821Z,73.50
2018-02-24T15:47:08.183Z,73.70
2018-02-24T15:49:35.748Z,73.60
2018-02-24T15:52:04.221Z,72.80
2018-02-24T15:54:31.774Z,72.80
2018-02-24T15:56:59.364Z,73.80
2018-02-24T15:59:27.778Z,73.90
2018-02-24T16:01:55.352Z,73.70
2018-02-24T16:04:22.899Z,74.30
2018-02-24T16:06:50.495Z,73.70
2018-02-24T16:09:18.036Z,74.40
2018-02-24T16:11:45.691Z,74.30
2018-02-24T16:14:13.353Z,74.10
2018-02-24T16:16:40.847Z,74.20
2018-02-24T16:19:09.218Z,74.50
2018-02-24T16:21:37.562Z,74.50
2018-02-24T16:24:05.159Z,74.50
2018-02-24T16:26:32.736Z,74.30
2018-02-24T16:29:01.056Z,74.10
2018-02-24T16:31:28.652Z,74.10
2018-02-24T16:33:56.193Z,74.30
2018-02-24T16:36:23.834Z,74.30
2018-02-24T16:38:51.416Z,74.40
2018-02-24T16:41:19.009Z,74.60
2018-02-24T16:43:47.331Z,74.70
2018-02-24T16:46:14.914Z,74.70
2018-02-24T16:48:42.451Z,74.70
2018-02-24T16:51:10.023Z,74.70
2018-02-24T16:53:37.560Z,74.80
2018-02-24T16:56:05.143Z,75.00
2018-02-24T16:58:32.685Z,75.20
2018-02-24T17:01:00.226Z,75.40
2018-02-24T17:03:27.803Z,75.20
2018-02-24T17:05:55.402Z,75.30
2018-02-24T17:08:22.940Z,75.40
2018-02-24T17:10:50.472Z,75.50
2018-02-24T17:13:18.049Z,75.70
2018-02-24T17:15:45.600Z,75.60
2018-02-24T17:18:13.188Z,75.80
2018-02-24T17:20:40.722Z,75.60
2018-02-24T17:23:08.257Z,76.00
2018-02-24T17:25:35.835Z,75.80
2018-02-24T17:28:03.367Z,75.80
2018-02-24T17:30:31.663Z,76.20
2018-02-24T17:32:59.241Z,76.10
2018-02-24T17:35:26.903Z,76.30
2018-02-24T17:37:54.500Z,76.00
2018-02-24T17:40:22.039Z,76.10
2018-02-24T17:42:49.592Z,75.90
2018-02-24T17:45:17.168Z,75.80
2018-02-24T17:47:46.254Z,76.00
2018-02-24T17:50:13.806Z,76.00
2018-02-24T17:52:41.387Z,75.90
2018-02-24T17:55:08.940Z,74.90
2018-02-24T17:57:36.484Z,75.20
2018-02-24T18:00:04.078Z,75.70
2018-02-24T18:02:31.616Z,75.90
2018-02-24T18:04:59.168Z,75.70
2018-02-24T18:07:26.736Z,75.50
2018-02-24T18:09:54.279Z,75.50
2018-02-24T18:12:21.847Z,75.40
2018-02-24T18:14:49.389Z,75.70
2018-02-24T18:17:16.976Z,75.60
2018-02-24T18:19:44.511Z,75.70
2018-02-24T18:22:12.058Z,75.20
2018-02-24T18:24:39.667Z,75.40
2018-02-24T18:27:07.203Z,75.50
2018-02-24T18:29:34.787Z,75.50
2018-02-24T18:32:03.117Z,74.90
2018-02-24T18:34:30.651Z,75.00
2018-02-24T18:36:59.006Z,74.90
2018-02-24T18:39:26.712Z,74.90
2018-02-24T18:41:54.255Z,75.20
2018-02-24T18:44:22.606Z,74.40
2018-02-24T18:46:50.958Z,74.50
2018-02-24T18:49:18.494Z,74.50
2018-02-24T18:51:46.164Z,74.50
2018-02-24T18:54:13.724Z,74.40
2018-02-24T18:56:41.283Z,74.20
2018-02-24T18:59:08.833Z,73.70
2018-02-24T19:01:36.416Z,74.00
2018-02-24T19:04:03.964Z,74.30
2018-02-24T19:06:31.508Z,74.70
2018-02-24T19:08:59.084Z,74.40
2018-02-24T19:11:26.664Z,74.50
2018-02-24T19:13:54.221Z,74.10
2018-02-24T19:16:21.780Z,74.20
2018-02-24T19:18:49.372Z,74.50
2018-02-24T19:21:17.710Z,74.30
2018-02-24T19:23:45.307Z,74.20
2018-02-24T19:26:12.893Z,74.10
2018-02-24T19:28:40.437Z,75.20
2018-02-24T19:31:08.778Z,74.40
2018-02-24T19:33:36.344Z,74.40
2018-02-24T19:36:03.924Z,74.60
2018-02-24T19:38:31.463Z,74.40
2018-02-24T19:40:59.058Z,74.50
2018-02-24T19:43:27.364Z,74.10
2018-02-24T19:45:54.949Z,74.10
2018-02-24T19:48:22.561Z,74.30
2018-02-24T19:50:50.136Z,74.30
2018-02-24T19:53:17.677Z,74.10
2018-02-24T19:55:46.057Z,73.80
2018-02-24T19:58:14.380Z,74.10
2018-02-24T20:00:41.963Z,74.10
2018-02-24T20:03:09.508Z,74.20
2018-02-24T20:05:37.092Z,74.20
2018-02-24T20:08:04.646Z,74.20
2018-02-24T20:10:32.225Z,73.90
2018-02-24T20:13:00.567Z,74.30
2018-02-24T20:15:28.120Z,74.20
2018-02-24T20:17:55.700Z,74.10
2018-02-24T20:20:23.275Z,74.20
2018-02-24T20:22:50.828Z,74.40
2018-02-24T20:25:18.404Z,74.30
2018-02-24T20:27:46.712Z,74.60
2018-02-24T20:30:14.316Z,74.50
2018-02-24T20:32:42.632Z,74.60
2018-02-24T20:35:10.964Z,74.80
2018-02-24T20:37:38.553Z,74.70
2018-02-24T20:40:06.866Z,74.90
2018-02-24T20:42:34.452Z,74.80
2018-02-24T20:45:01.999Z,75.00
2018-02-24T20:47:29.573Z,74.30
2018-02-24T20:49:57.113Z,74.10
2018-02-24T20:52:24.698Z,74.70
2018-02-24T20:54:52.269Z,74.70
2018-02-24T20:57:19.883Z,74.50
2018-02-24T20:59:47.456Z,74.60
2018-02-24T21:02:14.999Z,74.20
2018-02-24T21:04:42.614Z,74.10
2018-02-24T21:07:10.148Z,73.90
2018-02-24T21:09:37.683Z,74.10
2018-02-24T21:12:05.262Z,74.10
2018-02-24T21:14:32.831Z,73.70
2018-02-24T21:17:00.405Z,73.90
2018-02-24T21:19:27.953Z,73.90
2018-02-24T21:21:55.582Z,74.00
2018-02-24T21:24:23.855Z,74.20
2018-02-24T21:26:51.461Z,74.20
2018-02-24T21:29:19.004Z,73.80
2018-02-24T21:31:46.599Z,73.90
2018-02-24T21:34:14.904Z,74.00
2018-02-24T21:36:42.475Z,74.00
2018-02-24T21:39:10.022Z,73.60
2018-02-24T21:41:37.609Z,73.50
2018-02-24T21:44:05.163Z,73.60
2018-02-24T21:46:32.708Z,73.50
2018-02-24T21:49:00.286Z,73.50
2018-02-24T21:51:27.870Z,73.20
2018-02-24T21:53:55.473Z,73.10
2018-02-24T21:56:23.764Z,73.10
2018-02-24T21:58:51.442Z,73.10
2018-02-24T22:01:18.980Z,73.20
2018-02-24T22:03:46.552Z,73.10
2018-02-24T22:06:14.095Z,73.00
2018-02-24T22:08:41.691Z,73.10
2018-02-24T22:11:09.265Z,73.30
2018-02-24T22:13:36.804Z,73.20
2018-02-24T22:16:04.382Z,73.00
2018-02-24T22:18:31.932Z,73.00
2018-02-24T22:20:59.514Z,72.60
2018-02-24T22:23:27.056Z,72.70
2018-02-24T22:25:54.646Z,72.20
2018-02-24T22:28:22.188Z,72.50
2018-02-24T22:30:49.723Z,72.80
2018-02-24T22:33:17.280Z,71.60
2018-02-24T22:35:44.824Z,71.60
2018-02-24T22:38:12.412Z,71.40
2018-02-24T22:40:40.045Z,71.40
2018-02-24T22:43:07.614Z,72.00
2018-02-24T22:45:35.195Z,72.00
2018-02-24T22:48:08.313Z,71.70
2018-02-24T22:50:36.012Z,71.70
2018-02-24T22:53:03.586Z,72.70
2018-02-24T22:55:31.168Z,71.80
2018-02-24T22:57:58.754Z,71.40
2018-02-24T23:00:29.293Z,71.00
2018-02-24T23:02:57.635Z,71.70
2018-02-24T23:05:25.167Z,70.80
2018-02-24T23:07:52.754Z,70.60
2018-02-24T23:10:20.343Z,70.90
2018-02-24T23:12:47.884Z,70.60
2018-02-24T23:15:15.458Z,70.40
2018-02-24T23:17:42.996Z,70.40
2018-02-24T23:20:10.587Z,70.40
2018-02-24T23:22:38.887Z,70.40
2018-02-24T23:25:06.421Z,70.40
2018-02-24T23:27:34.788Z,70.40
2018-02-24T23:30:02.344Z,70.30
2018-02-24T23:32:29.893Z,70.00
2018-02-24T23:34:57.463Z,70.40
2018-02-24T23:37:25.040Z,69.90
2018-02-24T23:39:53.384Z,70.30
2018-02-24T23:42:20.934Z,70.30
2018-02-24T23:44:48.557Z,70.30
2018-02-24T23:47:16.108Z,70.50
2018-02-24T23:49:44.519Z,70.50
2018-02-24T23:52:12.052Z,70.50
2018-02-24T23:54:40.347Z,70.20
2018-02-24T23:57:07.928Z,70.30
2018-02-24T23:59:35.459Z,69.80
